sensor_id;sensor_type;location;lat;lon;timestamp;pressure;altitude;pressure_sealevel;temperature;humidity
41688;BME280;27371;42.686;23.362;2022-08-20T00:02:23;94478.50;;;23.20;51.77
41688;BME280;27371;42.686;23.362;2022-08-20T00:04:49;94478.88;;;23.33;51.02
41688;BME280;27371;42.686;23.362;2022-08-20T00:07:14;94495.97;;;23.57;50.67
41688;BME280;27371;42.686;23.362;2022-08-20T00:09:41;94501.50;;;23.74;50.28
41688;BME280;27371;42.686;23.362;2022-08-20T00:12:08;94494.19;;;23.79;50.15
41688;BME280;27371;42.686;23.362;2022-08-20T00:14:35;94492.59;;;23.86;49.97
41688;BME280;27371;42.686;23.362;2022-08-20T00:17:01;94486.94;;;23.93;49.75
41688;BME280;27371;42.686;23.362;2022-08-20T00:19:28;94476.09;;;23.88;49.71
41688;BME280;27371;42.686;23.362;2022-08-20T00:21:53;94500.84;;;23.93;49.70
41688;BME280;27371;42.686;23.362;2022-08-20T00:24:19;94494.09;;;23.96;49.83
41688;BME280;27371;42.686;23.362;2022-08-20T00:26:44;94492.16;;;23.89;49.77
41688;BME280;27371;42.686;23.362;2022-08-20T00:29:10;94492.16;;;23.89;50.19
41688;BME280;27371;42.686;23.362;2022-08-20T00:31:35;94486.44;;;23.87;49.86
41688;BME280;27371;42.686;23.362;2022-08-20T00:34:01;94493.78;;;23.92;49.88
41688;BME280;27371;42.686;23.362;2022-08-20T00:36:26;94490.44;;;23.94;49.63
41688;BME280;27371;42.686;23.362;2022-08-20T00:38:52;94481.78;;;23.90;49.77
41688;BME280;27371;42.686;23.362;2022-08-20T00:41:24;94488.94;;;23.93;49.81
41688;BME280;27371;42.686;23.362;2022-08-20T00:44:07;94488.22;;;23.92;49.80
41688;BME280;27371;42.686;23.362;2022-08-20T00:46:34;94484.88;;;23.94;49.76
41688;BME280;27371;42.686;23.362;2022-08-20T00:49:00;94485.75;;;23.96;49.68
41688;BME280;27371;42.686;23.362;2022-08-20T00:51:50;94484.59;;;23.99;49.64
41688;BME280;27371;42.686;23.362;2022-08-20T00:54:19;94474.94;;;24.00;49.79
41688;BME280;27371;42.686;23.362;2022-08-20T00:56:51;94470.69;;;23.99;49.58
41688;BME280;27371;42.686;23.362;2022-08-20T00:59:23;94474.78;;;23.98;49.49
41688;BME280;27371;42.686;23.362;2022-08-20T01:01:51;94487.66;;;24.04;49.61
41688;BME280;27371;42.686;23.362;2022-08-20T01:04:17;94467.75;;;23.97;49.66
41688;BME280;27371;42.686;23.362;2022-08-20T01:06:42;94468.91;;;23.94;49.73
41688;BME280;27371;42.686;23.362;2022-08-20T01:09:09;94466.69;;;23.93;49.79
41688;BME280;27371;42.686;23.362;2022-08-20T01:11:35;94463.78;;;23.91;49.87
41688;BME280;27371;42.686;23.362;2022-08-20T01:14:06;94461.13;;;23.83;50.04
41688;BME280;27371;42.686;23.362;2022-08-20T01:16:54;94459.50;;;23.80;50.24
41688;BME280;27371;42.686;23.362;2022-08-20T01:19:28;94458.63;;;23.77;50.39
41688;BME280;27371;42.686;23.362;2022-08-20T01:21:54;94459.88;;;23.67;50.59
41688;BME280;27371;42.686;23.362;2022-08-20T01:24:41;94448.75;;;23.67;50.68
41688;BME280;27371;42.686;23.362;2022-08-20T01:27:08;94455.47;;;23.64;50.83
41688;BME280;27371;42.686;23.362;2022-08-20T01:29:36;94449.47;;;23.58;50.99
41688;BME280;27371;42.686;23.362;2022-08-20T01:32:04;94431.69;;;23.43;51.09
41688;BME280;27371;42.686;23.362;2022-08-20T01:34:30;94457.31;;;23.51;51.25
41688;BME280;27371;42.686;23.362;2022-08-20T01:36:56;94459.22;;;23.49;51.38
41688;BME280;27371;42.686;23.362;2022-08-20T01:39:29;94456.84;;;23.45;51.47
41688;BME280;27371;42.686;23.362;2022-08-20T01:44:38;94451.13;;;23.43;51.62
41688;BME280;27371;42.686;23.362;2022-08-20T01:47:23;94452.88;;;23.39;51.92
41688;BME280;27371;42.686;23.362;2022-08-20T01:49:54;94445.69;;;23.36;51.73
41688;BME280;27371;42.686;23.362;2022-08-20T01:52:45;94441.59;;;23.37;51.92
41688;BME280;27371;42.686;23.362;2022-08-20T01:55:13;94425.19;;;23.31;51.94
41688;BME280;27371;42.686;23.362;2022-08-20T01:57:39;94442.03;;;23.33;52.04
41688;BME280;27371;42.686;23.362;2022-08-20T02:00:07;94426.91;;;23.26;52.27
41688;BME280;27371;42.686;23.362;2022-08-20T02:02:35;94433.25;;;23.27;52.33
41688;BME280;27371;42.686;23.362;2022-08-20T02:05:00;94438.03;;;23.26;52.28
41688;BME280;27371;42.686;23.362;2022-08-20T02:07:26;94437.91;;;23.24;52.40
41688;BME280;27371;42.686;23.362;2022-08-20T02:09:53;94429.06;;;23.18;52.55
41688;BME280;27371;42.686;23.362;2022-08-20T02:12:18;94422.94;;;23.20;52.51
41688;BME280;27371;42.686;23.362;2022-08-20T02:14:48;94439.47;;;23.18;52.58
41688;BME280;27371;42.686;23.362;2022-08-20T02:17:16;94432.28;;;23.15;52.72
41688;BME280;27371;42.686;23.362;2022-08-20T02:19:47;94427.31;;;23.13;52.72
41688;BME280;27371;42.686;23.362;2022-08-20T02:22:23;94425.09;;;23.11;53.00
41688;BME280;27371;42.686;23.362;2022-08-20T02:24:50;94426.56;;;23.12;52.99
41688;BME280;27371;42.686;23.362;2022-08-20T02:27:16;94427.63;;;23.17;52.98
41688;BME280;27371;42.686;23.362;2022-08-20T02:29:43;94430.22;;;23.15;53.01
41688;BME280;27371;42.686;23.362;2022-08-20T02:32:09;94418.81;;;23.11;53.10
41688;BME280;27371;42.686;23.362;2022-08-20T02:34:35;94426.56;;;23.12;53.11
41688;BME280;27371;42.686;23.362;2022-08-20T02:37:03;94433.59;;;23.14;53.53
41688;BME280;27371;42.686;23.362;2022-08-20T02:39:29;94426.81;;;23.07;53.36
41688;BME280;27371;42.686;23.362;2022-08-20T02:41:54;94423.16;;;23.04;53.88
41688;BME280;27371;42.686;23.362;2022-08-20T02:44:20;94419.34;;;23.00;53.71
41688;BME280;27371;42.686;23.362;2022-08-20T02:46:47;94433.22;;;23.00;53.83
41688;BME280;27371;42.686;23.362;2022-08-20T02:49:15;94426.41;;;22.93;53.85
41688;BME280;27371;42.686;23.362;2022-08-20T02:51:42;94431.50;;;22.87;54.25
41688;BME280;27371;42.686;23.362;2022-08-20T02:54:08;94429.72;;;22.82;54.47
41688;BME280;27371;42.686;23.362;2022-08-20T02:56:34;94434.97;;;22.78;54.73
41688;BME280;27371;42.686;23.362;2022-08-20T02:59:00;94434.63;;;22.74;55.13
41688;BME280;27371;42.686;23.362;2022-08-20T03:01:25;94420.78;;;22.56;55.39
41688;BME280;27371;42.686;23.362;2022-08-20T03:03:51;94429.66;;;22.55;55.62
41688;BME280;27371;42.686;23.362;2022-08-20T03:06:18;94439.63;;;22.40;56.21
41688;BME280;27371;42.686;23.362;2022-08-20T03:08:43;94447.72;;;22.29;56.44
41688;BME280;27371;42.686;23.362;2022-08-20T03:11:09;94437.28;;;22.19;56.74
41688;BME280;27371;42.686;23.362;2022-08-20T03:13:35;94441.00;;;22.14;57.27
41688;BME280;27371;42.686;23.362;2022-08-20T03:16:03;94440.34;;;22.06;57.21
41688;BME280;27371;42.686;23.362;2022-08-20T03:18:33;94441.31;;;22.01;57.46
41688;BME280;27371;42.686;23.362;2022-08-20T03:20:59;94436.16;;;21.97;57.68
41688;BME280;27371;42.686;23.362;2022-08-20T03:23:25;94437.88;;;21.93;57.75
41688;BME280;27371;42.686;23.362;2022-08-20T03:25:51;94434.50;;;21.94;57.89
41688;BME280;27371;42.686;23.362;2022-08-20T03:28:17;94442.81;;;21.94;57.98
41688;BME280;27371;42.686;23.362;2022-08-20T03:30:43;94437.13;;;21.92;58.08
41688;BME280;27371;42.686;23.362;2022-08-20T03:33:09;94441.78;;;21.90;58.30
41688;BME280;27371;42.686;23.362;2022-08-20T03:35:35;94436.63;;;21.86;58.11
41688;BME280;27371;42.686;23.362;2022-08-20T03:38:06;94430.00;;;21.82;58.55
41688;BME280;27371;42.686;23.362;2022-08-20T03:40:33;94440.13;;;21.87;58.63
41688;BME280;27371;42.686;23.362;2022-08-20T03:42:59;94437.50;;;21.89;58.59
41688;BME280;27371;42.686;23.362;2022-08-20T03:45:26;94436.06;;;21.88;58.59
41688;BME280;27371;42.686;23.362;2022-08-20T03:47:53;94445.03;;;21.96;58.42
41688;BME280;27371;42.686;23.362;2022-08-20T03:50:22;94447.56;;;22.01;58.26
41688;BME280;27371;42.686;23.362;2022-08-20T03:52:48;94451.44;;;22.06;58.25
41688;BME280;27371;42.686;23.362;2022-08-20T03:55:14;94453.06;;;22.09;58.18
41688;BME280;27371;42.686;23.362;2022-08-20T03:57:45;94452.66;;;22.13;58.01
41688;BME280;27371;42.686;23.362;2022-08-20T04:00:12;94462.47;;;22.14;57.96
41688;BME280;27371;42.686;23.362;2022-08-20T04:02:38;94437.38;;;22.04;57.86
41688;BME280;27371;42.686;23.362;2022-08-20T04:05:05;94451.75;;;22.10;58.10
41688;BME280;27371;42.686;23.362;2022-08-20T04:07:31;94454.13;;;22.14;58.01
41688;BME280;27371;42.686;23.362;2022-08-20T04:09:56;94457.78;;;22.16;57.81
41688;BME280;27371;42.686;23.362;2022-08-20T04:12:23;94458.88;;;22.21;57.83
41688;BME280;27371;42.686;23.362;2022-08-20T04:14:49;94446.16;;;22.18;57.91
41688;BME280;27371;42.686;23.362;2022-08-20T04:17:17;94452.94;;;22.24;57.81
41688;BME280;27371;42.686;23.362;2022-08-20T04:19:42;94462.16;;;22.27;57.82
41688;BME280;27371;42.686;23.362;2022-08-20T04:22:09;94454.59;;;22.28;57.86
41688;BME280;27371;42.686;23.362;2022-08-20T04:24:38;94453.50;;;22.40;57.36
41688;BME280;27371;42.686;23.362;2022-08-20T04:27:04;94459.72;;;22.49;57.22
41688;BME280;27371;42.686;23.362;2022-08-20T04:29:31;94455.16;;;22.61;57.03
41688;BME280;27371;42.686;23.362;2022-08-20T04:31:57;94454.47;;;22.70;56.53
41688;BME280;27371;42.686;23.362;2022-08-20T04:34:24;94445.16;;;22.75;56.28
41688;BME280;27371;42.686;23.362;2022-08-20T04:36:50;94455.50;;;22.92;56.15
41688;BME280;27371;42.686;23.362;2022-08-20T04:39:16;94465.53;;;23.22;55.40
41688;BME280;27371;42.686;23.362;2022-08-20T04:41:42;94467.88;;;23.53;54.52
41688;BME280;27371;42.686;23.362;2022-08-20T04:44:08;94467.25;;;23.82;53.96
41688;BME280;27371;42.686;23.362;2022-08-20T04:46:37;94467.03;;;24.07;53.33
41688;BME280;27371;42.686;23.362;2022-08-20T04:49:03;94466.22;;;24.33;52.25
41688;BME280;27371;42.686;23.362;2022-08-20T04:51:30;94473.44;;;24.65;51.47
41688;BME280;27371;42.686;23.362;2022-08-20T04:53:56;94480.16;;;24.92;50.76
41688;BME280;27371;42.686;23.362;2022-08-20T04:56:25;94479.28;;;25.18;50.01
41688;BME280;27371;42.686;23.362;2022-08-20T04:58:52;94474.09;;;25.44;49.52
41688;BME280;27371;42.686;23.362;2022-08-20T05:01:18;94474.16;;;25.75;48.65
41688;BME280;27371;42.686;23.362;2022-08-20T05:03:44;94482.72;;;25.98;48.03
41688;BME280;27371;42.686;23.362;2022-08-20T05:06:12;94472.56;;;26.03;47.43
41688;BME280;27371;42.686;23.362;2022-08-20T05:08:38;94483.41;;;26.09;47.42
41688;BME280;27371;42.686;23.362;2022-08-20T05:11:05;94482.75;;;26.20;47.41
41688;BME280;27371;42.686;23.362;2022-08-20T05:13:30;94485.91;;;26.36;46.83
41688;BME280;27371;42.686;23.362;2022-08-20T05:15:57;94484.13;;;26.62;46.83
41688;BME280;27371;42.686;23.362;2022-08-20T05:18:25;94480.66;;;26.73;45.90
41688;BME280;27371;42.686;23.362;2022-08-20T05:20:52;94474.00;;;26.57;46.13
41688;BME280;27371;42.686;23.362;2022-08-20T05:23:18;94460.78;;;26.36;46.24
41688;BME280;27371;42.686;23.362;2022-08-20T05:25:46;94479.31;;;26.31;46.84
41688;BME280;27371;42.686;23.362;2022-08-20T05:28:23;94476.72;;;26.45;46.55
41688;BME280;27371;42.686;23.362;2022-08-20T05:30:50;94466.88;;;26.44;46.45
41688;BME280;27371;42.686;23.362;2022-08-20T05:33:18;94470.75;;;26.39;47.07
41688;BME280;27371;42.686;23.362;2022-08-20T05:35:45;94467.16;;;26.48;46.50
41688;BME280;27371;42.686;23.362;2022-08-20T05:38:14;94474.47;;;26.53;46.75
41688;BME280;27371;42.686;23.362;2022-08-20T05:40:42;94476.84;;;26.47;46.55
41688;BME280;27371;42.686;23.362;2022-08-20T05:43:08;94475.72;;;26.19;47.23
41688;BME280;27371;42.686;23.362;2022-08-20T05:45:35;94479.88;;;26.08;47.34
41688;BME280;27371;42.686;23.362;2022-08-20T05:48:10;94467.63;;;25.92;48.01
41688;BME280;27371;42.686;23.362;2022-08-20T05:50:39;94469.38;;;25.97;48.21
41688;BME280;27371;42.686;23.362;2022-08-20T05:53:06;94457.13;;;26.02;47.89
41688;BME280;27371;42.686;23.362;2022-08-20T05:55:32;94456.63;;;26.15;48.35
41688;BME280;27371;42.686;23.362;2022-08-20T05:58:02;94467.94;;;26.39;47.53
41688;BME280;27371;42.686;23.362;2022-08-20T06:00:28;94469.75;;;26.77;46.61
41688;BME280;27371;42.686;23.362;2022-08-20T06:02:55;94462.44;;;27.05;46.14
41688;BME280;27371;42.686;23.362;2022-08-20T06:05:39;94472.13;;;27.26;45.33
41688;BME280;27371;42.686;23.362;2022-08-20T06:08:06;94455.38;;;27.38;45.49
41688;BME280;27371;42.686;23.362;2022-08-20T06:10:33;94440.03;;;27.27;45.39
41688;BME280;27371;42.686;23.362;2022-08-20T06:12:59;94457.84;;;27.55;45.10
41688;BME280;27371;42.686;23.362;2022-08-20T06:15:25;94463.34;;;27.76;44.73
41688;BME280;27371;42.686;23.362;2022-08-20T06:17:50;94474.19;;;27.94;44.16
41688;BME280;27371;42.686;23.362;2022-08-20T06:20:16;94459.22;;;27.89;43.87
41688;BME280;27371;42.686;23.362;2022-08-20T06:22:41;94461.66;;;27.83;43.88
41688;BME280;27371;42.686;23.362;2022-08-20T06:25:07;94470.03;;;27.95;44.15
41688;BME280;27371;42.686;23.362;2022-08-20T06:27:36;94474.41;;;28.10;44.06
41688;BME280;27371;42.686;23.362;2022-08-20T06:30:03;94472.59;;;28.26;43.17
41688;BME280;27371;42.686;23.362;2022-08-20T06:32:28;94484.97;;;28.35;43.31
41688;BME280;27371;42.686;23.362;2022-08-20T06:34:54;94472.16;;;28.55;42.91
41688;BME280;27371;42.686;23.362;2022-08-20T06:37:24;94478.97;;;28.64;42.68
41688;BME280;27371;42.686;23.362;2022-08-20T06:39:51;94479.22;;;28.68;42.31
41688;BME280;27371;42.686;23.362;2022-08-20T06:42:18;94464.53;;;28.81;42.11
41688;BME280;27371;42.686;23.362;2022-08-20T06:44:45;94450.41;;;28.79;42.09
41688;BME280;27371;42.686;23.362;2022-08-20T06:47:18;94465.34;;;28.96;42.44
41688;BME280;27371;42.686;23.362;2022-08-20T06:49:44;94460.25;;;28.92;42.40
41688;BME280;27371;42.686;23.362;2022-08-20T06:52:10;94460.00;;;28.88;42.40
41688;BME280;27371;42.686;23.362;2022-08-20T06:54:36;94458.47;;;28.73;42.72
41688;BME280;27371;42.686;23.362;2022-08-20T06:57:02;94456.53;;;28.64;42.89
41688;BME280;27371;42.686;23.362;2022-08-20T06:59:28;94455.63;;;28.48;43.33
41688;BME280;27371;42.686;23.362;2022-08-20T07:01:54;94446.63;;;28.49;43.02
41688;BME280;27371;42.686;23.362;2022-08-20T07:04:22;94444.16;;;28.55;42.49
41688;BME280;27371;42.686;23.362;2022-08-20T07:06:47;94443.78;;;28.61;42.92
41688;BME280;27371;42.686;23.362;2022-08-20T07:12:00;94448.41;;;29.19;41.91
41688;BME280;27371;42.686;23.362;2022-08-20T07:14:26;94440.28;;;29.37;40.89
41688;BME280;27371;42.686;23.362;2022-08-20T07:16:51;94432.28;;;29.45;40.13
41688;BME280;27371;42.686;23.362;2022-08-20T07:19:17;94439.66;;;29.52;40.24
41688;BME280;27371;42.686;23.362;2022-08-20T07:21:42;94439.16;;;29.42;40.30
41688;BME280;27371;42.686;23.362;2022-08-20T07:24:08;94437.06;;;29.43;39.91
41688;BME280;27371;42.686;23.362;2022-08-20T07:26:34;94434.16;;;29.41;40.10
41688;BME280;27371;42.686;23.362;2022-08-20T07:28:59;94440.84;;;29.61;40.12
41688;BME280;27371;42.686;23.362;2022-08-20T07:31:25;94439.03;;;29.80;39.54
41688;BME280;27371;42.686;23.362;2022-08-20T07:34:09;94440.38;;;29.79;39.94
41688;BME280;27371;42.686;23.362;2022-08-20T07:36:35;94429.75;;;29.77;39.58
41688;BME280;27371;42.686;23.362;2022-08-20T07:39:01;94427.69;;;29.64;39.78
41688;BME280;27371;42.686;23.362;2022-08-20T07:41:27;94429.97;;;29.67;40.29
41688;BME280;27371;42.686;23.362;2022-08-20T07:43:52;94421.88;;;30.01;39.28
41688;BME280;27371;42.686;23.362;2022-08-20T07:46:19;94435.59;;;30.09;39.08
41688;BME280;27371;42.686;23.362;2022-08-20T07:48:46;94429.16;;;30.20;38.83
41688;BME280;27371;42.686;23.362;2022-08-20T07:51:15;94439.56;;;30.31;39.09
41688;BME280;27371;42.686;23.362;2022-08-20T07:53:42;94433.31;;;30.47;38.27
41688;BME280;27371;42.686;23.362;2022-08-20T07:56:13;94433.09;;;30.43;38.28
41688;BME280;27371;42.686;23.362;2022-08-20T07:58:45;94438.59;;;30.40;38.68
41688;BME280;27371;42.686;23.362;2022-08-20T08:01:21;94438.19;;;30.46;38.21
41688;BME280;27371;42.686;23.362;2022-08-20T08:03:49;94421.13;;;30.42;38.33
41688;BME280;27371;42.686;23.362;2022-08-20T08:06:18;94433.19;;;30.45;38.27
41688;BME280;27371;42.686;23.362;2022-08-20T08:08:44;94431.53;;;30.53;38.12
41688;BME280;27371;42.686;23.362;2022-08-20T08:11:10;94429.53;;;30.56;37.84
41688;BME280;27371;42.686;23.362;2022-08-20T08:13:38;94432.41;;;30.72;37.70
41688;BME280;27371;42.686;23.362;2022-08-20T08:16:08;94440.13;;;30.85;37.60
41688;BME280;27371;42.686;23.362;2022-08-20T08:18:48;94436.03;;;30.88;37.38
41688;BME280;27371;42.686;23.362;2022-08-20T08:21:14;94430.16;;;30.98;37.56
41688;BME280;27371;42.686;23.362;2022-08-20T08:23:40;94422.81;;;31.06;37.26
41688;BME280;27371;42.686;23.362;2022-08-20T08:26:12;94430.75;;;31.26;36.62
41688;BME280;27371;42.686;23.362;2022-08-20T08:28:39;94422.09;;;31.06;36.96
41688;BME280;27371;42.686;23.362;2022-08-20T08:31:05;94427.41;;;30.84;37.40
41688;BME280;27371;42.686;23.362;2022-08-20T08:33:31;94419.06;;;30.86;37.54
41688;BME280;27371;42.686;23.362;2022-08-20T08:36:08;94414.06;;;31.14;36.91
41688;BME280;27371;42.686;23.362;2022-08-20T08:38:36;94411.75;;;31.40;36.78
41688;BME280;27371;42.686;23.362;2022-08-20T08:43:37;94407.50;;;31.71;35.83
41688;BME280;27371;42.686;23.362;2022-08-20T08:46:05;94406.50;;;31.64;35.93
41688;BME280;27371;42.686;23.362;2022-08-20T08:48:36;94398.75;;;31.65;35.99
41688;BME280;27371;42.686;23.362;2022-08-20T08:51:05;94399.75;;;31.87;35.79
41688;BME280;27371;42.686;23.362;2022-08-20T08:53:49;94392.66;;;31.86;35.47
41688;BME280;27371;42.686;23.362;2022-08-20T08:56:23;94393.31;;;31.85;35.04
41688;BME280;27371;42.686;23.362;2022-08-20T08:58:49;94390.16;;;31.77;35.68
41688;BME280;27371;42.686;23.362;2022-08-20T09:01:17;94382.16;;;31.71;35.35
41688;BME280;27371;42.686;23.362;2022-08-20T09:03:45;94390.66;;;31.89;34.96
41688;BME280;27371;42.686;23.362;2022-08-20T09:06:16;94382.22;;;31.89;34.66
41688;BME280;27371;42.686;23.362;2022-08-20T09:09:19;94383.59;;;31.72;34.76
41688;BME280;27371;42.686;23.362;2022-08-20T09:11:49;94370.66;;;31.49;34.85
41688;BME280;27371;42.686;23.362;2022-08-20T09:14:17;94387.25;;;31.43;35.27
41688;BME280;27371;42.686;23.362;2022-08-20T09:16:43;94374.19;;;31.49;35.44
41688;BME280;27371;42.686;23.362;2022-08-20T09:19:09;94388.16;;;31.63;34.64
41688;BME280;27371;42.686;23.362;2022-08-20T09:21:35;94384.78;;;31.51;34.96
41688;BME280;27371;42.686;23.362;2022-08-20T09:24:00;94375.09;;;31.54;35.03
41688;BME280;27371;42.686;23.362;2022-08-20T09:26:25;94377.06;;;31.67;34.54
41688;BME280;27371;42.686;23.362;2022-08-20T09:28:51;94383.34;;;31.82;33.58
41688;BME280;27371;42.686;23.362;2022-08-20T09:31:16;94375.00;;;31.68;33.34
41688;BME280;27371;42.686;23.362;2022-08-20T09:33:42;94371.16;;;31.77;33.82
41688;BME280;27371;42.686;23.362;2022-08-20T09:36:08;94377.63;;;31.96;33.70
41688;BME280;27371;42.686;23.362;2022-08-20T09:38:33;94366.44;;;31.82;33.97
41688;BME280;27371;42.686;23.362;2022-08-20T09:40:59;94371.97;;;31.80;34.02
41688;BME280;27371;42.686;23.362;2022-08-20T09:43:25;94364.97;;;31.81;33.90
41688;BME280;27371;42.686;23.362;2022-08-20T09:45:50;94356.88;;;31.89;33.90
41688;BME280;27371;42.686;23.362;2022-08-20T09:48:16;94359.38;;;32.14;33.42
41688;BME280;27371;42.686;23.362;2022-08-20T09:50:45;94363.09;;;32.19;33.09
41688;BME280;27371;42.686;23.362;2022-08-20T09:53:13;94356.34;;;32.26;33.51
41688;BME280;27371;42.686;23.362;2022-08-20T09:55:41;94362.66;;;32.43;32.91
41688;BME280;27371;42.686;23.362;2022-08-20T10:00:54;94373.66;;;32.36;32.59
41688;BME280;27371;42.686;23.362;2022-08-20T10:03:19;94361.06;;;32.04;33.26
41688;BME280;27371;42.686;23.362;2022-08-20T10:05:45;94362.97;;;31.99;33.84
41688;BME280;27371;42.686;23.362;2022-08-20T10:08:11;94365.31;;;31.89;33.69
41688;BME280;27371;42.686;23.362;2022-08-20T10:10:37;94357.66;;;31.58;33.78
41688;BME280;27371;42.686;23.362;2022-08-20T10:13:03;94362.72;;;31.61;34.10
41688;BME280;27371;42.686;23.362;2022-08-20T10:15:30;94352.19;;;31.62;33.74
41688;BME280;27371;42.686;23.362;2022-08-20T10:17:56;94356.47;;;31.63;34.14
41688;BME280;27371;42.686;23.362;2022-08-20T10:20:23;94355.44;;;31.72;33.83
41688;BME280;27371;42.686;23.362;2022-08-20T10:22:49;94351.16;;;31.87;34.00
41688;BME280;27371;42.686;23.362;2022-08-20T10:25:15;94351.34;;;31.91;33.75
41688;BME280;27371;42.686;23.362;2022-08-20T10:27:42;94356.69;;;32.01;33.15
41688;BME280;27371;42.686;23.362;2022-08-20T10:30:08;94346.50;;;32.09;32.40
41688;BME280;27371;42.686;23.362;2022-08-20T10:32:34;94341.13;;;32.15;32.02
41688;BME280;27371;42.686;23.362;2022-08-20T10:35:00;94352.63;;;32.22;32.55
41688;BME280;27371;42.686;23.362;2022-08-20T10:37:26;94341.63;;;32.28;32.80
41688;BME280;27371;42.686;23.362;2022-08-20T10:39:52;94335.97;;;32.28;32.77
41688;BME280;27371;42.686;23.362;2022-08-20T10:42:18;94342.38;;;32.46;32.22
41688;BME280;27371;42.686;23.362;2022-08-20T10:44:44;94326.59;;;32.57;31.97
41688;BME280;27371;42.686;23.362;2022-08-20T10:47:18;94339.72;;;32.68;31.54
41688;BME280;27371;42.686;23.362;2022-08-20T10:49:43;94322.66;;;32.64;31.43
41688;BME280;27371;42.686;23.362;2022-08-20T10:52:09;94331.25;;;32.86;31.08
41688;BME280;27371;42.686;23.362;2022-08-20T10:54:35;94325.88;;;32.92;30.70
41688;BME280;27371;42.686;23.362;2022-08-20T10:57:02;94318.53;;;33.03;30.77
41688;BME280;27371;42.686;23.362;2022-08-20T10:59:28;94326.44;;;33.07;30.98
41688;BME280;27371;42.686;23.362;2022-08-20T11:01:54;94326.66;;;32.95;31.02
41688;BME280;27371;42.686;23.362;2022-08-20T11:04:19;94316.69;;;32.74;31.19
41688;BME280;27371;42.686;23.362;2022-08-20T11:06:45;94316.69;;;32.74;31.17
41688;BME280;27371;42.686;23.362;2022-08-20T11:09:10;94327.34;;;32.75;31.11
41688;BME280;27371;42.686;23.362;2022-08-20T11:11:36;94327.25;;;32.73;31.32
41688;BME280;27371;42.686;23.362;2022-08-20T11:14:02;94321.75;;;32.77;31.21
41688;BME280;27371;42.686;23.362;2022-08-20T11:16:28;94300.00;;;32.80;31.22
41688;BME280;27371;42.686;23.362;2022-08-20T11:18:53;94312.09;;;33.00;31.13
41688;BME280;27371;42.686;23.362;2022-08-20T11:21:19;94310.88;;;33.06;30.91
41688;BME280;27371;42.686;23.362;2022-08-20T11:23:44;94308.94;;;32.92;30.84
41688;BME280;27371;42.686;23.362;2022-08-20T11:26:20;94297.97;;;32.82;31.17
41688;BME280;27371;42.686;23.362;2022-08-20T11:28:45;94283.19;;;32.64;30.78
41688;BME280;27371;42.686;23.362;2022-08-20T11:31:11;94287.13;;;32.75;30.70
41688;BME280;27371;42.686;23.362;2022-08-20T11:33:36;94284.06;;;32.69;30.82
41688;BME280;27371;42.686;23.362;2022-08-20T11:36:02;94278.34;;;32.67;30.79
41688;BME280;27371;42.686;23.362;2022-08-20T11:38:28;94280.47;;;32.48;30.51
41688;BME280;27371;42.686;23.362;2022-08-20T11:40:54;94269.19;;;32.48;30.91
41688;BME280;27371;42.686;23.362;2022-08-20T11:43:19;94263.34;;;32.44;30.41
41688;BME280;27371;42.686;23.362;2022-08-20T11:45:51;94260.34;;;32.56;29.78
41688;BME280;27371;42.686;23.362;2022-08-20T11:48:18;94259.53;;;32.53;30.42
41688;BME280;27371;42.686;23.362;2022-08-20T11:50:45;94264.44;;;32.53;30.50
41688;BME280;27371;42.686;23.362;2022-08-20T11:53:10;94259.81;;;32.44;29.96
41688;BME280;27371;42.686;23.362;2022-08-20T11:55:36;94259.28;;;32.29;29.64
41688;BME280;27371;42.686;23.362;2022-08-20T11:58:02;94252.16;;;32.28;29.97
41688;BME280;27371;42.686;23.362;2022-08-20T12:00:28;94262.19;;;32.31;29.59
41688;BME280;27371;42.686;23.362;2022-08-20T12:02:54;94259.91;;;32.28;29.78
41688;BME280;27371;42.686;23.362;2022-08-20T12:05:20;94252.66;;;32.23;29.75
41688;BME280;27371;42.686;23.362;2022-08-20T12:07:45;94262.00;;;32.27;29.46
41688;BME280;27371;42.686;23.362;2022-08-20T12:10:12;94262.00;;;32.27;29.71
41688;BME280;27371;42.686;23.362;2022-08-20T12:12:38;94258.47;;;32.27;29.46
41688;BME280;27371;42.686;23.362;2022-08-20T12:15:05;94256.28;;;32.25;29.53
41688;BME280;27371;42.686;23.362;2022-08-20T12:17:31;94256.84;;;32.22;29.66
41688;BME280;27371;42.686;23.362;2022-08-20T12:20:00;94263.28;;;32.24;29.57
41688;BME280;27371;42.686;23.362;2022-08-20T12:22:26;94266.41;;;32.14;30.29
41688;BME280;27371;42.686;23.362;2022-08-20T12:24:54;94262.16;;;31.96;31.26
41688;BME280;27371;42.686;23.362;2022-08-20T12:27:23;94258.03;;;31.99;31.37
41688;BME280;27371;42.686;23.362;2022-08-20T12:29:51;94257.31;;;31.98;31.63
41688;BME280;27371;42.686;23.362;2022-08-20T12:32:22;94268.59;;;31.98;31.72
41688;BME280;27371;42.686;23.362;2022-08-20T12:34:48;94277.50;;;31.92;33.20
41688;BME280;27371;42.686;23.362;2022-08-20T12:37:17;94280.34;;;31.77;34.69
41688;BME280;27371;42.686;23.362;2022-08-20T12:39:47;94285.91;;;31.59;37.01
41688;BME280;27371;42.686;23.362;2022-08-20T12:42:14;94286.03;;;31.45;38.62
41688;BME280;27371;42.686;23.362;2022-08-20T12:44:40;94287.56;;;31.32;40.92
41688;BME280;27371;42.686;23.362;2022-08-20T12:47:13;94280.13;;;30.91;47.90
41688;BME280;27371;42.686;23.362;2022-08-20T12:49:41;94311.19;;;30.20;51.57
41688;BME280;27371;42.686;23.362;2022-08-20T12:52:08;94304.50;;;28.89;54.64
41688;BME280;27371;42.686;23.362;2022-08-20T12:54:34;94296.63;;;27.97;56.83
41688;BME280;27371;42.686;23.362;2022-08-20T12:57:00;94279.31;;;27.04;59.18
41688;BME280;27371;42.686;23.362;2022-08-20T12:59:26;94275.91;;;26.49;60.50
41688;BME280;27371;42.686;23.362;2022-08-20T13:01:52;94268.66;;;26.11;61.38
41688;BME280;27371;42.686;23.362;2022-08-20T13:04:18;94238.34;;;25.84;62.62